Time;durP1;ratioP1;P1;durP2;ratioP2;P2;SDS_P1;SDS_P2;PMS_P1;PMS_P2;Temp;Humidity;BMP_temperature;BMP_pressure;BME280_temperature;BME280_humidity;BME280_pressure;Samples;Min_cycle;Max_cycle;Signal;HPM_P1;HPM_P2
2021/08/27 00:00:34;;;;;;;6.93;4.30;;;;;;;11.68;87.89;96029.36;127928;1093;25292;-81
2021/08/27 00:03:06;;;;;;;6.53;3.53;;;;;;;11.71;88.06;96023.48;127977;1093;24635;-82
2021/08/27 00:05:38;;;;;;;4.30;3.33;;;;;;;11.73;87.99;96025.83;127586;1093;24395;-81
2021/08/27 00:08:09;;;;;;;6.18;4.10;;;;;;;11.70;87.94;96031.74;127641;1093;23055;-82
2021/08/27 00:10:41;;;;;;;7.48;3.95;;;;;;;11.65;87.89;96018.56;127545;1093;28719;-83
2021/08/27 00:13:14;;;;;;;6.98;3.53;;;;;;;11.60;88.02;96024.78;127987;1093;24878;-81
2021/08/27 00:15:45;;;;;;;5.30;3.88;;;;;;;11.56;88.05;96031.77;128042;1092;24453;-82
2021/08/27 00:18:17;;;;;;;6.30;3.83;;;;;;;11.55;88.17;96035.52;127601;1093;23137;-80
2021/08/27 00:20:48;;;;;;;5.33;3.70;;;;;;;11.56;88.45;96037.08;127729;1092;29834;-80
2021/08/27 00:23:19;;;;;;;7.00;4.13;;;;;;;11.60;88.61;96032.73;128007;1093;25193;-82
2021/08/27 00:25:51;;;;;;;7.48;4.18;;;;;;;11.61;88.76;96039.62;127570;1093;24134;-80
2021/08/27 00:28:22;;;;;;;6.23;3.85;;;;;;;11.62;88.86;96041.19;127527;1093;26093;-81
2021/08/27 00:30:57;;;;;;;6.03;3.65;;;;;;;11.60;88.81;96036.18;127691;1093;64681;-81
2021/08/27 00:33:28;;;;;;;5.70;3.98;;;;;;;11.60;88.91;96043.36;127584;1092;25303;-83
2021/08/27 00:36:00;;;;;;;5.68;3.40;;;;;;;11.59;89.22;96042.58;127518;1093;71807;-82
2021/08/27 00:38:31;;;;;;;4.37;3.13;;;;;;;11.59;89.02;96047.89;127588;1093;22807;-81
2021/08/27 00:41:04;;;;;;;4.08;2.23;;;;;;;11.62;88.90;96051.81;127581;1093;24399;-82
2021/08/27 00:43:36;;;;;;;3.83;2.30;;;;;;;11.66;88.71;96044.81;127631;1093;22666;-81
2021/08/27 00:46:07;;;;;;;4.05;2.85;;;;;;;11.68;88.68;96045.30;127945;1093;23962;-82
2021/08/27 00:48:40;;;;;;;4.33;2.53;;;;;;;11.72;88.61;96040.20;127596;1093;23117;-82
2021/08/27 00:51:11;;;;;;;3.78;2.50;;;;;;;11.74;88.45;96036.15;127997;1093;24466;-82
2021/08/27 00:53:43;;;;;;;5.63;2.83;;;;;;;11.74;88.44;96038.80;127630;1093;28461;-82
2021/08/27 00:56:15;;;;;;;5.03;3.50;;;;;;;11.70;88.45;96037.84;127630;1093;23991;-82
2021/08/27 00:58:47;;;;;;;5.33;3.30;;;;;;;11.66;88.52;96041.38;127981;1093;24384;-81
2021/08/27 01:01:18;;;;;;;5.50;3.43;;;;;;;11.63;88.90;96045.41;127593;1093;22886;-81
2021/08/27 01:03:50;;;;;;;4.60;3.63;;;;;;;11.65;89.05;96053.08;127953;1093;23771;-81
2021/08/27 01:06:27;;;;;;;6.08;3.78;;;;;;;11.64;88.99;96054.16;128010;1093;22829;-82
2021/08/27 01:09:06;;;;;;;5.73;3.58;;;;;;;11.65;89.04;96061.83;127570;1093;25264;-82
2021/08/27 01:11:44;;;;;;;5.20;3.23;;;;;;;11.68;89.04;96055.13;127591;1093;28760;-81
2021/08/27 01:14:24;;;;;;;5.90;3.38;;;;;;;11.68;89.05;96066.53;127645;1093;22781;-81
2021/08/27 01:17:02;;;;;;;5.93;3.07;;;;;;;11.66;89.19;96055.43;127602;1093;22799;-82
2021/08/27 01:20:07;;;;;;;5.93;3.50;;;;;;;11.67;89.20;96048.25;127613;1093;23285;-81
2021/08/27 01:23:00;;;;;;;4.30;3.08;;;;;;;11.67;89.19;96058.87;127965;1093;23029;-82
2021/08/27 01:25:36;;;;;;;5.60;3.10;;;;;;;11.67;89.03;96042.94;127587;1093;24503;-82
2021/08/27 01:28:09;;;;;;;3.85;2.55;;;;;;;11.66;88.96;96044.81;127984;1093;26398;-81
2021/08/27 01:30:48;;;;;;;5.60;3.55;;;;;;;11.67;88.97;96046.38;127656;1093;27839;-81
2021/08/27 01:33:24;;;;;;;6.13;3.30;;;;;;;11.69;88.77;96043.45;127968;1093;22968;-81
2021/08/27 01:36:00;;;;;;;4.28;2.85;;;;;;;11.67;88.78;96046.38;127577;1091;32767;-81
2021/08/27 01:38:37;;;;;;;4.40;3.38;;;;;;;11.66;88.70;96039.50;127618;1093;24354;-83
2021/08/27 01:41:12;;;;;;;5.98;3.55;;;;;;;11.63;88.83;96041.97;127954;1093;27541;-81
2021/08/27 01:43:47;;;;;;;5.40;3.78;;;;;;;11.58;88.98;96045.53;127763;1093;22877;-83
2021/08/27 01:46:20;;;;;;;4.30;3.08;;;;;;;11.57;89.20;96054.58;127952;1093;32595;-81
2021/08/27 01:48:53;;;;;;;4.15;3.30;;;;;;;11.53;89.42;96053.58;128000;1092;22826;-81
2021/08/27 01:51:25;;;;;;;5.15;3.25;;;;;;;11.50;89.30;96054.19;127950;1093;26444;-81
2021/08/27 01:53:57;;;;;;;4.98;3.13;;;;;;;11.52;89.43;96058.11;127966;1093;28612;-82
2021/08/27 01:56:31;;;;;;;4.20;2.93;;;;;;;11.52;89.40;96057.32;127999;1093;23464;-81
2021/08/27 01:59:03;;;;;;;5.03;3.40;;;;;;;11.50;89.33;96048.88;127596;1093;25640;-81
2021/08/27 02:01:36;;;;;;;6.03;2.85;;;;;;;11.47;89.08;96050.26;127556;1093;73112;-81
2021/08/27 02:04:11;;;;;;;3.35;2.43;;;;;;;11.47;89.07;96057.44;127751;1093;30800;-81
2021/08/27 02:06:44;;;;;;;4.68;2.60;;;;;;;11.47;89.04;96065.40;128051;1093;24392;-82
2021/08/27 02:09:19;;;;;;;4.60;2.55;;;;;;;11.48;89.13;96061.66;128046;1093;22832;-81
2021/08/27 02:11:52;;;;;;;4.97;2.70;;;;;;;11.50;89.02;96064.80;127575;1093;33077;-81
2021/08/27 02:14:24;;;;;;;4.03;2.27;;;;;;;11.51;89.09;96063.72;127600;1093;26156;-82
2021/08/27 02:16:56;;;;;;;3.83;2.30;;;;;;;11.51;89.03;96063.72;127614;1093;27704;-82
2021/08/27 02:19:28;;;;;;;2.33;2.00;;;;;;;11.54;89.26;96055.16;127990;1093;22935;-81
2021/08/27 02:22:01;;;;;;;2.48;1.90;;;;;;;11.59;89.18;96057.72;127954;1093;26901;-83
2021/08/27 02:24:37;;;;;;;3.25;1.98;;;;;;;11.58;89.08;96056.94;127584;1093;23529;-82
2021/08/27 02:27:09;;;;;;;3.83;2.08;;;;;;;11.58;89.12;96056.94;127569;1093;28139;-83
2021/08/27 02:29:44;;;;;;;3.50;2.00;;;;;;;11.61;89.03;96066.17;127989;1093;30269;-82
2021/08/27 02:32:16;;;;;;;3.30;2.30;;;;;;;11.62;89.04;96073.05;128023;1092;25597;-81
2021/08/27 02:34:49;;;;;;;3.05;2.20;;;;;;;11.61;89.32;96071.48;127605;1093;22820;-81
2021/08/27 02:37:23;;;;;;;2.55;2.03;;;;;;;11.59;89.34;96070.99;127952;1093;28530;-82
2021/08/27 02:39:57;;;;;;;2.75;2.00;;;;;;;11.57;89.35;96065.20;128021;1093;25335;-82
2021/08/27 02:42:31;;;;;;;3.35;2.23;;;;;;;11.57;89.38;96070.51;127596;1093;24437;-82
2021/08/27 02:45:06;;;;;;;3.20;2.23;;;;;;;11.57;89.44;96065.20;127626;1093;27923;-81
2021/08/27 02:47:38;;;;;;;3.45;2.43;;;;;;;11.55;89.33;96064.72;127662;1093;26671;-81
2021/08/27 02:50:12;;;;;;;2.33;2.03;;;;;;;11.54;89.43;96060.46;127954;1093;25307;-81
2021/08/27 02:52:51;;;;;;;3.20;2.30;;;;;;;11.52;89.29;96068.72;127631;1093;25224;-81
2021/08/27 02:55:27;;;;;;;2.65;2.08;;;;;;;11.53;89.35;96072.16;127941;1092;31056;-80
2021/08/27 02:58:02;;;;;;;3.43;2.55;;;;;;;11.52;89.33;96079.34;128003;1093;22796;-82
2021/08/27 03:00:38;;;;;;;3.73;2.28;;;;;;;11.52;89.70;96081.21;127963;1093;35085;-81
2021/08/27 03:03:11;;;;;;;3.48;2.30;;;;;;;11.51;89.84;96082.30;127601;1093;22796;-81
2021/08/27 03:05:45;;;;;;;3.65;2.60;;;;;;;11.48;89.95;96085.55;128001;1093;30840;-82
2021/08/27 03:08:21;;;;;;;3.98;1.98;;;;;;;11.46;90.00;96079.76;128111;1091;23763;-81
2021/08/27 03:11:02;;;;;;;4.58;2.58;;;;;;;11.42;90.29;96084.88;127966;1093;24093;-81
2021/08/27 03:13:43;;;;;;;2.48;2.03;;;;;;;11.41;90.38;96087.83;128001;1092;26541;-82
2021/08/27 03:16:18;;;;;;;3.33;2.60;;;;;;;11.41;90.60;96087.83;127707;1093;22811;-81
2021/08/27 03:18:54;;;;;;;4.53;2.50;;;;;;;11.41;90.50;96078.00;127590;1093;25870;-81
2021/08/27 03:21:37;;;;;;;3.10;2.35;;;;;;;11.43;90.50;96090.97;127583;1093;26854;-81
2021/08/27 03:24:16;;;;;;;3.93;2.33;;;;;;;11.43;90.58;96091.75;127583;1093;24039;-81
2021/08/27 03:26:50;;;;;;;4.83;2.78;;;;;;;11.44;90.80;96095.20;127629;1092;22841;-82
2021/08/27 03:29:23;;;;;;;4.88;2.80;;;;;;;11.44;90.77;96097.84;127559;1093;25484;-81
2021/08/27 03:31:56;;;;;;;3.40;2.50;;;;;;;11.44;90.85;96089.89;127623;1093;23844;-82
2021/08/27 03:34:28;;;;;;;3.80;2.88;;;;;;;11.43;90.78;96091.75;127608;1093;23281;-82
2021/08/27 03:37:51;;;;;;;4.70;3.10;;;;;;;11.47;90.85;96092.58;112110;1219;567315;-80
2021/08/27 03:40:23;;;;;;;7.70;2.90;;;;;;;11.46;90.89;96092.71;113532;1209;25649;-82
2021/08/27 03:42:57;;;;;;;3.70;2.90;;;;;;;11.47;90.83;96092.85;113653;1214;27501;-82
2021/08/27 03:45:31;;;;;;;2.70;2.50;;;;;;;11.49;90.88;96090.46;113675;1205;30469;-82
2021/08/27 03:48:03;;;;;;;4.20;2.50;;;;;;;11.47;90.97;96091.83;113687;1206;25930;-81
2021/08/27 03:50:34;;;;;;;3.30;2.30;;;;;;;11.42;91.09;96091.21;113674;1207;28163;-81
2021/08/27 03:53:09;;;;;;;4.80;2.70;;;;;;;11.43;91.20;96091.04;113646;1209;26890;-82
2021/08/27 03:55:40;;;;;;;5.10;2.70;;;;;;;11.46;91.40;96089.38;113612;1206;34388;-82
2021/08/27 03:58:17;;;;;;;3.10;2.60;;;;;;;11.48;91.46;96085.34;113768;1206;29123;-82
2021/08/27 04:00:49;;;;;;;3.70;2.40;;;;;;;11.45;91.49;96090.71;113687;1206;28273;-82
2021/08/27 04:03:23;;;;;;;4.90;2.90;;;;;;;11.40;91.41;96088.30;113676;1206;25736;-82
2021/08/27 04:06:05;;;;;;;5.10;3.20;;;;;;;11.36;91.49;96088.54;113616;1206;30126;-81
2021/08/27 04:08:39;;;;;;;6.50;3.50;;;;;;;11.29;91.41;96091.01;113699;1213;27679;-82
2021/08/27 04:11:14;;;;;;;4.80;3.30;;;;;;;11.27;91.56;96090.27;114020;1205;25898;-82
2021/08/27 04:13:45;;;;;;;4.50;3.30;;;;;;;11.31;91.82;96094.27;114179;1206;22474;-82
2021/08/27 04:16:19;;;;;;;3.50;3.00;;;;;;;11.36;91.97;96096.77;114361;1203;22460;-82
2021/08/27 04:18:54;;;;;;;4.10;3.00;;;;;;;11.38;92.06;96101.45;114023;1206;26329;-82
2021/08/27 04:21:25;;;;;;;3.90;3.20;;;;;;;11.37;92.20;96103.44;114052;1196;25175;-82
2021/08/27 04:23:56;;;;;;;5.30;3.40;;;;;;;11.36;92.24;96108.98;114039;1203;26937;-83
2021/08/27 04:26:27;;;;;;;6.20;4.00;;;;;;;11.35;92.33;96112.98;113953;1203;27237;-82
2021/08/27 04:28:58;;;;;;;3.90;2.90;;;;;;;11.36;92.43;96117.33;114083;1203;30783;-82
2021/08/27 04:31:30;;;;;;;3.90;3.00;;;;;;;11.36;92.46;96117.89;113946;1210;26622;-81
2021/08/27 04:34:01;;;;;;;5.40;3.40;;;;;;;11.39;92.53;96119.31;114011;1203;26679;-82
2021/08/27 04:36:32;;;;;;;4.10;3.30;;;;;;;11.42;92.55;96115.88;113888;1203;30255;-82
2021/08/27 04:39:03;;;;;;;6.30;3.60;;;;;;;11.45;92.69;96115.82;113889;1203;54297;-82
2021/08/27 04:41:34;;;;;;;4.70;3.20;;;;;;;11.46;92.75;96121.04;113925;1203;25870;-82
2021/08/27 04:44:05;;;;;;;6.20;3.10;;;;;;;11.49;92.91;96124.31;113980;1204;29457;-81
2021/08/27 04:46:37;;;;;;;3.80;3.00;;;;;;;11.51;93.17;96126.84;114040;1210;27381;-81
2021/08/27 04:49:07;;;;;;;5.30;3.50;;;;;;;11.51;93.33;96129.77;113959;1203;27011;-82
2021/08/27 04:51:38;;;;;;;5.00;3.30;;;;;;;11.48;93.41;96127.22;113939;1203;26630;-82
2021/08/27 04:54:09;;;;;;;5.60;3.90;;;;;;;11.49;93.54;96123.96;114001;1203;26815;-81
2021/08/27 04:56:40;;;;;;;3.80;3.40;;;;;;;11.50;93.59;96123.73;114084;1204;25187;-82
2021/08/27 04:59:11;;;;;;;4.30;3.20;;;;;;;11.52;93.74;96125.59;114022;1203;27540;-81
2021/08/27 05:01:42;;;;;;;4.40;3.20;;;;;;;11.55;93.69;96125.39;113946;1204;27193;-82
2021/08/27 05:04:13;;;;;;;5.50;3.70;;;;;;;11.60;93.73;96126.04;114109;1203;26604;-81
2021/08/27 05:06:44;;;;;;;4.90;3.50;;;;;;;11.66;93.76;96125.38;114109;1203;26851;-82
2021/08/27 05:09:17;;;;;;;5.70;3.50;;;;;;;11.70;93.82;96127.27;114001;1203;26495;-79
2021/08/27 05:11:48;;;;;;;4.90;3.30;;;;;;;11.69;93.62;96130.90;113904;1204;27925;-81
2021/08/27 05:14:19;;;;;;;4.50;3.30;;;;;;;11.69;93.68;96130.22;114006;1204;29237;-82
2021/08/27 05:16:53;;;;;;;5.00;3.60;;;;;;;11.73;93.75;96127.83;114019;1210;26036;-81
2021/08/27 05:19:24;;;;;;;5.00;3.90;;;;;;;11.71;93.57;96126.94;113871;1204;34807;-81
2021/08/27 05:21:55;;;;;;;6.10;3.70;;;;;;;11.67;93.63;96126.20;114007;1203;26821;-80
2021/08/27 05:24:26;;;;;;;4.80;3.40;;;;;;;11.63;93.63;96125.23;113970;1204;28090;-81
2021/08/27 05:26:57;;;;;;;5.00;3.60;;;;;;;11.61;93.72;96127.29;113981;1204;26224;-81
2021/08/27 05:29:28;;;;;;;6.40;3.50;;;;;;;11.65;93.94;96129.02;113952;1203;27166;-82
2021/08/27 05:31:59;;;;;;;5.40;3.40;;;;;;;11.72;94.24;96128.98;113951;1203;27811;-82
2021/08/27 05:34:30;;;;;;;5.00;3.40;;;;;;;11.78;94.15;96132.16;113854;1207;83057;-82
2021/08/27 05:37:01;;;;;;;4.80;3.30;;;;;;;11.82;94.18;96134.10;113894;1204;27257;-82
2021/08/27 05:39:32;;;;;;;5.20;3.30;;;;;;;11.88;94.30;96131.48;114005;1203;27259;-82
2021/08/27 05:42:03;;;;;;;6.80;3.80;;;;;;;11.94;94.08;96132.20;114051;1203;26184;-82
2021/08/27 05:44:34;;;;;;;5.20;3.20;;;;;;;11.98;93.94;96126.46;114009;1203;26714;-82
2021/08/27 05:47:06;;;;;;;4.90;3.30;;;;;;;12.04;93.91;96125.56;114003;1203;30173;-82
2021/08/27 05:49:37;;;;;;;4.70;3.30;;;;;;;12.10;93.71;96124.59;114043;1203;29852;-81
2021/08/27 05:52:09;;;;;;;4.20;2.90;;;;;;;12.22;93.70;96125.51;114029;1204;28138;-82
2021/08/27 05:54:40;;;;;;;4.80;3.50;;;;;;;12.36;93.64;96124.56;114022;1204;24948;-82
2021/08/27 05:57:11;;;;;;;4.90;3.50;;;;;;;12.47;93.41;96129.27;114051;1207;27861;-82
2021/08/27 05:59:42;;;;;;;5.40;3.70;;;;;;;12.51;93.00;96128.44;113954;1204;29003;-82
2021/08/27 06:02:14;;;;;;;4.40;3.10;;;;;;;12.55;92.96;96127.95;114054;1204;25673;-82
2021/08/27 06:04:45;;;;;;;4.80;3.00;;;;;;;12.59;92.87;96124.85;114050;1204;27596;-82
2021/08/27 06:07:16;;;;;;;4.60;2.70;;;;;;;12.62;92.58;96123.34;114033;1200;37198;-81
2021/08/27 06:09:46;;;;;;;4.60;3.00;;;;;;;12.66;92.32;96128.09;113925;1204;26110;-81
2021/08/27 06:12:18;;;;;;;4.70;3.60;;;;;;;12.69;92.41;96127.66;113931;1208;28005;-81
2021/08/27 06:14:48;;;;;;;4.90;3.30;;;;;;;12.67;92.10;96131.63;113949;1204;24880;-81
2021/08/27 06:17:22;;;;;;;4.10;3.10;;;;;;;12.61;91.78;96134.87;114014;1203;27646;-81
2021/08/27 06:19:53;;;;;;;4.20;3.00;;;;;;;12.57;91.80;96139.55;114037;1204;26740;-81
2021/08/27 06:22:24;;;;;;;5.60;3.20;;;;;;;12.60;92.01;96139.69;113885;1195;31918;-81
2021/08/27 06:24:55;;;;;;;4.20;3.20;;;;;;;12.73;92.14;96144.48;113876;1204;25758;-81
2021/08/27 06:27:26;;;;;;;6.80;3.80;;;;;;;12.98;92.44;96143.51;113986;1210;25781;-83
2021/08/27 06:29:58;;;;;;;3.70;3.10;;;;;;;13.35;92.58;96147.44;113972;1204;28935;-81
2021/08/27 06:32:29;;;;;;;3.10;2.50;;;;;;;13.70;92.10;96148.92;113992;1204;26683;-82
2021/08/27 06:35:00;;;;;;;4.50;3.10;;;;;;;14.08;90.91;96143.78;113857;1206;27238;-81
2021/08/27 06:40:20;;;;;;;3.80;2.80;;;;;;;14.19;88.40;96149.74;113856;1204;29198;-82
2021/08/27 06:42:51;;;;;;;5.70;2.90;;;;;;;14.23;87.79;96150.05;113970;1203;26866;-81
2021/08/27 06:45:22;;;;;;;4.60;3.00;;;;;;;14.30;87.05;96151.38;114005;1203;26603;-81
2021/08/27 06:47:53;;;;;;;4.50;3.20;;;;;;;14.30;86.99;96154.43;114002;1203;25124;-82
2021/08/27 06:50:25;;;;;;;4.00;3.20;;;;;;;14.30;86.75;96150.98;114046;1203;27119;-82
2021/08/27 06:52:57;;;;;;;4.60;3.40;;;;;;;14.41;86.74;96146.73;114025;1204;26236;-82
2021/08/27 06:55:28;;;;;;;3.40;2.60;;;;;;;14.93;87.08;96141.48;113981;1204;26785;-82
2021/08/27 06:58:01;;;;;;;4.30;3.10;;;;;;;15.15;85.81;96142.67;113908;1204;27481;-82
2021/08/27 07:00:33;;;;;;;4.80;3.40;;;;;;;15.32;85.40;96144.23;113965;1209;29776;-82
2021/08/27 07:03:04;;;;;;;4.30;3.10;;;;;;;15.74;85.17;96143.27;113999;1203;27190;-82
2021/08/27 07:05:35;;;;;;;4.30;2.80;;;;;;;16.54;85.13;96149.31;114028;1203;25971;-82
2021/08/27 07:08:07;;;;;;;2.60;2.40;;;;;;;18.23;83.70;96147.34;114057;1203;26695;-83
2021/08/27 07:10:38;;;;;;;3.60;2.10;;;;;;;20.23;83.34;96141.39;113944;1205;25409;-83
2021/08/27 07:13:09;;;;;;;1.80;1.60;;;;;;;22.74;78.16;96137.41;113985;1204;26324;-83
2021/08/27 07:15:40;;;;;;;2.60;2.10;;;;;;;24.02;72.13;96131.79;113976;1203;29108;-83
2021/08/27 07:18:12;;;;;;;2.30;1.80;;;;;;;25.53;70.14;96129.73;114010;1210;27488;-83
2021/08/27 07:20:43;;;;;;;2.00;1.70;;;;;;;27.51;66.91;96123.64;114066;1198;27810;-83
2021/08/27 07:23:15;;;;;;;1.60;1.50;;;;;;;28.26;62.42;96124.58;113982;1204;25807;-82
2021/08/27 07:25:47;;;;;;;2.90;1.60;;;;;;;29.46;60.75;96122.42;113938;1206;30230;-82
2021/08/27 07:28:18;;;;;;;2.70;1.90;;;;;;;30.20;56.93;96116.16;113998;1210;29933;-82
2021/08/27 07:30:49;;;;;;;1.90;1.50;;;;;;;30.50;54.29;96120.48;113967;1204;27144;-82
2021/08/27 07:33:20;;;;;;;1.80;1.20;;;;;;;31.02;52.15;96119.51;113999;1204;28660;-83
2021/08/27 07:35:51;;;;;;;2.40;1.30;;;;;;;31.19;49.30;96117.13;113979;1208;34364;-82
2021/08/27 07:38:22;;;;;;;1.50;1.20;;;;;;;30.34;45.04;96122.25;114011;1203;39774;-83
2021/08/27 07:40:53;;;;;;;1.50;1.20;;;;;;;29.14;44.11;96121.52;113925;1206;26849;-82
2021/08/27 07:43:24;;;;;;;1.20;1.10;;;;;;;27.21;45.54;96122.00;113866;1204;28334;-83
2021/08/27 07:45:57;;;;;;;2.90;1.70;;;;;;;25.49;47.25;96132.23;113884;1204;27665;-84
2021/08/27 07:48:29;;;;;;;2.50;1.60;;;;;;;23.83;48.09;96133.54;113974;1205;25878;-82
2021/08/27 07:51:00;;;;;;;2.80;1.70;;;;;;;22.10;50.66;96141.19;113900;1209;36882;-83
2021/08/27 07:53:32;;;;;;;1.90;1.70;;;;;;;21.46;52.97;96145.42;113965;1208;26250;-82
2021/08/27 07:56:03;;;;;;;1.90;1.70;;;;;;;20.86;53.69;96142.45;114035;1203;25280;-82
2021/08/27 07:58:34;;;;;;;3.80;2.40;;;;;;;20.24;55.26;96148.39;113951;1204;27641;-82
2021/08/27 08:01:05;;;;;;;3.80;2.30;;;;;;;19.60;56.12;96154.18;113946;1203;25751;-83
2021/08/27 08:03:36;;;;;;;3.10;2.20;;;;;;;18.77;57.05;96158.90;114020;1205;26484;-81
2021/08/27 08:06:07;;;;;;;3.00;2.20;;;;;;;18.24;58.76;96162.04;113963;1206;28544;-81
2021/08/27 08:08:38;;;;;;;3.00;2.30;;;;;;;18.10;60.24;96160.16;113996;1205;27626;-83
2021/08/27 08:11:10;;;;;;;3.70;2.10;;;;;;;18.16;61.41;96164.70;114003;1209;28642;-83
2021/08/27 08:13:41;;;;;;;2.60;2.10;;;;;;;18.17;62.02;96164.43;114060;1200;27657;-82
2021/08/27 08:16:12;;;;;;;3.70;2.60;;;;;;;18.13;62.46;96165.15;114017;1205;29045;-82
2021/08/27 08:18:43;;;;;;;4.40;2.30;;;;;;;18.09;63.10;96166.64;114046;1206;28787;-83
2021/08/27 08:21:15;;;;;;;3.90;2.30;;;;;;;18.03;63.53;96164.08;114104;1206;27026;-82
2021/08/27 08:23:46;;;;;;;3.60;2.20;;;;;;;17.95;63.60;96161.68;113947;1204;28168;-82
2021/08/27 08:26:17;;;;;;;3.10;2.60;;;;;;;17.87;64.02;96159.81;114000;1209;30654;-81
2021/08/27 08:28:48;;;;;;;3.10;2.30;;;;;;;17.78;64.51;96160.26;113942;1207;26078;-82
2021/08/27 08:31:21;;;;;;;3.20;2.60;;;;;;;17.70;64.72;96158.90;113898;1206;26746;-82
2021/08/27 08:33:54;;;;;;;3.20;2.40;;;;;;;17.26;64.54;96165.32;113920;1205;34069;-82
2021/08/27 08:36:25;;;;;;;3.40;2.70;;;;;;;17.12;65.57;96165.77;113924;1209;29453;-82
2021/08/27 08:38:56;;;;;;;6.60;3.80;;;;;;;17.13;65.99;96166.02;113926;1209;27003;-82
2021/08/27 08:41:27;;;;;;;3.50;2.50;;;;;;;17.12;66.45;96162.09;113915;1205;27880;-83
2021/08/27 08:43:58;;;;;;;3.30;2.70;;;;;;;17.05;66.53;96161.63;113934;1205;28774;-83
2021/08/27 08:46:31;;;;;;;3.10;2.70;;;;;;;16.93;66.96;96156.77;113927;1211;32781;-82
2021/08/27 08:49:04;;;;;;;6.00;3.50;;;;;;;16.81;67.17;96156.21;113951;1205;28033;-81
2021/08/27 08:51:37;;;;;;;5.90;4.80;;;;;;;16.71;66.84;96157.74;113906;1210;27143;-82
2021/08/27 08:54:09;;;;;;;5.30;3.80;;;;;;;16.67;67.49;96158.34;113938;1209;29879;-82
2021/08/27 08:56:40;;;;;;;5.30;3.70;;;;;;;16.62;67.68;96166.21;113924;1206;27805;-82
2021/08/27 08:59:12;;;;;;;5.00;3.50;;;;;;;16.58;68.25;96169.20;113979;1204;27733;-82
2021/08/27 09:01:43;;;;;;;4.90;2.90;;;;;;;16.51;68.13;96176.08;113994;1207;23830;-82
2021/08/27 09:04:15;;;;;;;4.00;2.90;;;;;;;16.30;68.37;96175.40;113915;1209;26952;-82
2021/08/27 09:06:48;;;;;;;4.00;3.40;;;;;;;16.23;68.90;96175.70;113955;1205;33724;-81
2021/08/27 09:09:33;;;;;;;5.10;3.50;;;;;;;16.08;68.79;96177.33;113952;1210;27571;-81
2021/08/27 09:12:20;;;;;;;4.40;3.10;;;;;;;15.92;69.08;96175.20;113915;1206;26341;-82
2021/08/27 09:15:05;;;;;;;5.30;3.70;;;;;;;15.88;70.01;96170.45;113968;1208;29224;-81
2021/08/27 09:17:39;;;;;;;4.70;3.80;;;;;;;15.87;70.15;96175.67;113936;1195;28680;-82
2021/08/27 09:20:14;;;;;;;7.30;4.10;;;;;;;15.70;70.53;96175.02;113927;1205;28016;-82
2021/08/27 09:22:52;;;;;;;6.40;4.20;;;;;;;15.62;70.96;96179.41;114045;1209;27237;-81
2021/08/27 09:25:24;;;;;;;6.20;4.30;;;;;;;15.45;71.27;96180.45;113956;1208;26821;-81
2021/08/27 09:28:08;;;;;;;6.70;4.00;;;;;;;15.36;71.70;96186.10;113923;1200;35705;-82
2021/08/27 09:30:53;;;;;;;5.70;4.00;;;;;;;15.33;72.18;96182.23;113935;1209;27145;-82
2021/08/27 09:33:26;;;;;;;6.60;4.70;;;;;;;15.26;72.65;96183.65;113903;1210;28937;-82
2021/08/27 09:36:01;;;;;;;6.30;4.90;;;;;;;15.22;73.05;96183.73;113891;1208;33093;-82
2021/08/27 09:38:34;;;;;;;7.40;5.10;;;;;;;15.23;73.53;96184.60;113834;1212;28479;-82
2021/08/27 09:41:08;;;;;;;8.30;5.80;;;;;;;15.17;73.23;96191.27;113864;1206;30128;-82
2021/08/27 09:43:47;;;;;;;7.00;5.20;;;;;;;15.05;73.36;96192.96;113904;1206;26790;-82
2021/08/27 09:46:37;;;;;;;9.90;5.00;;;;;;;14.91;73.64;96193.20;113783;1209;28871;-82
2021/08/27 09:49:28;;;;;;;6.00;4.70;;;;;;;14.87;74.61;96191.37;113762;1212;31766;-82
2021/08/27 09:51:58;;;;;;;;;;;;;;;15.02;75.11;96194.27;113770;1206;27971;-83
2021/08/27 09:54:31;;;;;;;6.80;4.80;;;;;;;15.07;75.10;96194.15;113755;1209;28026;-81
2021/08/27 09:57:04;;;;;;;7.20;4.70;;;;;;;15.09;75.27;96194.84;113865;1206;29357;-82
2021/08/27 09:59:41;;;;;;;6.20;4.60;;;;;;;15.14;75.48;96194.83;113847;1209;26872;-82
2021/08/27 10:02:14;;;;;;;5.70;4.50;;;;;;;15.21;75.57;96194.88;113890;1208;30668;-82
2021/08/27 10:04:54;;;;;;;6.80;4.70;;;;;;;15.25;75.63;96200.63;113866;1209;28922;-82
2021/08/27 10:07:28;;;;;;;;;;;;;;;15.31;75.94;96198.93;113792;1205;33140;-82
2021/08/27 10:10:00;;;;;;;5.90;4.50;;;;;;;15.34;75.94;96198.23;113793;1206;28368;-83
2021/08/27 10:12:34;;;;;;;5.20;4.40;;;;;;;15.32;75.94;96200.43;113790;1205;29798;-82
2021/08/27 10:15:07;;;;;;;5.90;4.60;;;;;;;15.28;76.28;96201.49;113864;1205;27488;-82
2021/08/27 10:17:41;;;;;;;6.20;4.70;;;;;;;15.26;76.48;96204.77;113816;1206;30235;-82
2021/08/27 10:20:15;;;;;;;7.40;4.50;;;;;;;15.17;76.65;96204.02;113884;1201;26618;-82
2021/08/27 10:22:46;;;;;;;5.00;3.80;;;;;;;15.05;76.46;96204.73;113808;1205;26749;-80
2021/08/27 10:25:18;;;;;;;6.50;4.10;;;;;;;14.96;76.68;96205.35;113852;1205;36766;-82
2021/08/27 10:27:51;;;;;;;5.50;3.80;;;;;;;14.92;77.06;96204.36;113794;1211;31262;-82
2021/08/27 10:30:42;;;;;;;6.40;4.20;;;;;;;14.88;77.47;96203.20;113805;1205;29269;-82
2021/08/27 10:33:13;;;;;;;6.20;4.10;;;;;;;14.71;77.32;96208.21;113897;1205;27197;-82
2021/08/27 10:35:56;;;;;;;5.30;3.80;;;;;;;14.49;77.27;96205.40;113888;1205;28310;-82
2021/08/27 10:38:46;;;;;;;7.10;4.60;;;;;;;14.26;77.73;96209.42;113825;1205;27684;-82
2021/08/27 10:41:20;;;;;;;5.90;5.00;;;;;;;14.09;78.48;96212.05;113820;1211;29616;-82
2021/08/27 10:43:57;;;;;;;8.70;6.50;;;;;;;13.96;78.80;96215.02;113824;1209;27027;-83
2021/08/27 10:47:08;;;;;;;7.00;5.70;;;;;;;13.84;79.33;96216.69;113763;1205;27391;-82
2021/08/27 10:49:57;;;;;;;;;;;;;;;13.73;79.81;96214.63;113856;1205;27964;-82
2021/08/27 10:52:35;;;;;;;8.50;6.40;;;;;;;13.59;79.98;96215.16;113857;1205;26230;-82
2021/08/27 10:55:19;;;;;;;8.40;6.20;;;;;;;13.47;80.73;96220.71;113814;1210;50734;-82
2021/08/27 10:58:02;;;;;;;12.10;6.70;;;;;;;13.38;81.40;96224.92;113705;1205;28805;-82
2021/08/27 11:00:47;;;;;;;9.70;6.80;;;;;;;13.38;82.19;96224.34;113759;1211;30586;-83
2021/08/27 11:03:18;;;;;;;12.30;9.10;;;;;;;13.45;82.84;96222.45;113834;1205;30244;-81
2021/08/27 11:05:51;;;;;;;11.30;8.30;;;;;;;13.49;83.02;96220.78;113812;1205;29116;-82
2021/08/27 11:08:34;;;;;;;9.40;6.70;;;;;;;13.44;82.80;96221.73;113855;1205;32343;-82
2021/08/27 11:14:21;;;;;;;12.30;7.80;;;;;;;13.23;82.56;96225.23;112230;1223;573609;-82
2021/08/27 11:17:00;;;;;;;9.50;6.60;;;;;;;13.09;82.95;96222.15;113658;1210;25406;-82
2021/08/27 11:19:33;;;;;;;8.30;6.00;;;;;;;13.01;83.06;96222.76;113638;1208;27277;-82
2021/08/27 11:22:27;;;;;;;11.70;7.20;;;;;;;12.98;83.37;96223.37;113734;1213;24680;-82
2021/08/27 11:25:23;;;;;;;8.40;5.70;;;;;;;13.04;84.04;96223.74;113702;1209;25599;-82
2021/08/27 11:28:17;;;;;;;12.50;6.70;;;;;;;13.08;83.67;96221.20;113624;1212;29484;-82
2021/08/27 11:31:01;;;;;;;10.70;6.30;;;;;;;13.09;84.22;96218.68;113641;1212;26836;-82
2021/08/27 11:33:54;;;;;;;18.10;10.20;;;;;;;13.24;85.03;96218.61;113680;1209;28322;-83
2021/08/27 11:36:25;;;;;;;12.90;8.30;;;;;;;13.43;85.08;96215.43;113605;1208;28509;-82
2021/08/27 11:39:00;;;;;;;8.50;5.70;;;;;;;13.52;85.13;96214.13;113676;1208;30366;-82
2021/08/27 11:41:32;;;;;;;6.90;4.80;;;;;;;13.56;84.57;96211.84;113585;1207;30604;-82
2021/08/27 11:44:10;;;;;;;6.20;4.60;;;;;;;13.55;84.07;96211.42;113674;1213;31500;-82
2021/08/27 11:46:48;;;;;;;5.70;4.20;;;;;;;13.65;84.72;96216.45;113788;1212;26019;-82
2021/08/27 11:49:26;;;;;;;6.90;4.60;;;;;;;13.82;84.77;96213.69;113762;1209;32648;-83
2021/08/27 11:52:13;;;;;;;10.10;6.00;;;;;;;13.96;84.49;96212.52;113755;1209;30535;-82
2021/08/27 11:54:44;;;;;;;10.60;6.30;;;;;;;14.06;84.13;96216.11;113801;1207;30116;-83
2021/08/27 11:57:21;;;;;;;7.90;5.40;;;;;;;14.10;83.93;96213.66;113833;1212;27158;-82
2021/08/27 12:00:02;;;;;;;7.30;5.10;;;;;;;14.17;84.03;96214.66;113742;1206;27697;-82
2021/08/27 12:02:33;;;;;;;14.90;9.00;;;;;;;14.29;83.98;96210.17;113777;1206;29057;-82